sensor_id;sensor_type;location;lat;lon;timestamp;P1;durP1;ratioP1;P2;durP2;ratioP2
18997;SDS011;9632;51.018;4.284;2023-04-25T00:00:50;9.93;;;3.15;;
18997;SDS011;9632;51.018;4.284;2023-04-25T00:03:17;14.65;;;3.85;;
18997;SDS011;9632;51.018;4.284;2023-04-25T00:05:43;14.38;;;3.78;;
18997;SDS011;9632;51.018;4.284;2023-04-25T00:08:10;9.60;;;3.35;;
18997;SDS011;9632;51.018;4.284;2023-04-25T00:10:36;13.93;;;3.42;;
18997;SDS011;9632;51.018;4.284;2023-04-25T00:13:01;14.50;;;3.30;;
18997;SDS011;9632;51.018;4.284;2023-04-25T00:15:27;13.88;;;3.25;;
18997;SDS011;9632;51.018;4.284;2023-04-25T00:17:55;9.98;;;3.25;;
18997;SDS011;9632;51.018;4.284;2023-04-25T00:20:21;14.10;;;3.38;;
18997;SDS011;9632;51.018;4.284;2023-04-25T00:22:48;11.27;;;2.95;;
18997;SDS011;9632;51.018;4.284;2023-04-25T00:25:14;13.23;;;3.60;;
18997;SDS011;9632;51.018;4.284;2023-04-25T00:27:40;9.77;;;3.17;;
18997;SDS011;9632;51.018;4.284;2023-04-25T00:30:07;13.98;;;3.47;;
18997;SDS011;9632;51.018;4.284;2023-04-25T00:32:33;12.98;;;3.53;;
18997;SDS011;9632;51.018;4.284;2023-04-25T00:34:59;11.43;;;3.60;;
18997;SDS011;9632;51.018;4.284;2023-04-25T00:37:24;14.82;;;3.83;;
18997;SDS011;9632;51.018;4.284;2023-04-25T00:39:50;17.55;;;3.90;;
18997;SDS011;9632;51.018;4.284;2023-04-25T00:42:18;9.43;;;3.58;;
18997;SDS011;9632;51.018;4.284;2023-04-25T00:44:44;14.80;;;3.53;;
18997;SDS011;9632;51.018;4.284;2023-04-25T00:47:10;18.45;;;4.07;;
18997;SDS011;9632;51.018;4.284;2023-04-25T00:49:36;12.50;;;3.65;;
18997;SDS011;9632;51.018;4.284;2023-04-25T00:52:02;16.15;;;4.05;;
18997;SDS011;9632;51.018;4.284;2023-04-25T00:54:27;11.88;;;3.33;;
18997;SDS011;9632;51.018;4.284;2023-04-25T00:56:53;15.40;;;3.58;;
18997;SDS011;9632;51.018;4.284;2023-04-25T00:59:19;17.02;;;3.65;;
18997;SDS011;9632;51.018;4.284;2023-04-25T01:01:46;15.23;;;3.88;;
18997;SDS011;9632;51.018;4.284;2023-04-25T01:04:11;14.70;;;3.75;;
18997;SDS011;9632;51.018;4.284;2023-04-25T01:06:38;11.65;;;3.35;;
18997;SDS011;9632;51.018;4.284;2023-04-25T01:09:04;13.43;;;3.13;;
18997;SDS011;9632;51.018;4.284;2023-04-25T01:11:30;16.83;;;3.33;;
18997;SDS011;9632;51.018;4.284;2023-04-25T01:13:56;15.65;;;3.67;;
18997;SDS011;9632;51.018;4.284;2023-04-25T01:16:22;16.42;;;3.70;;
18997;SDS011;9632;51.018;4.284;2023-04-25T01:18:49;13.95;;;3.03;;
18997;SDS011;9632;51.018;4.284;2023-04-25T01:21:16;19.05;;;3.50;;
18997;SDS011;9632;51.018;4.284;2023-04-25T01:23:42;14.43;;;3.28;;
18997;SDS011;9632;51.018;4.284;2023-04-25T01:26:09;18.75;;;3.42;;
18997;SDS011;9632;51.018;4.284;2023-04-25T01:28:36;10.52;;;3.40;;
18997;SDS011;9632;51.018;4.284;2023-04-25T01:31:03;13.48;;;3.05;;
18997;SDS011;9632;51.018;4.284;2023-04-25T01:33:30;15.25;;;3.30;;
18997;SDS011;9632;51.018;4.284;2023-04-25T01:35:56;14.15;;;3.55;;
18997;SDS011;9632;51.018;4.284;2023-04-25T01:38:22;9.90;;;3.00;;
18997;SDS011;9632;51.018;4.284;2023-04-25T01:40:48;16.83;;;3.65;;
18997;SDS011;9632;51.018;4.284;2023-04-25T01:43:15;14.93;;;3.00;;
18997;SDS011;9632;51.018;4.284;2023-04-25T01:45:41;11.82;;;3.15;;
18997;SDS011;9632;51.018;4.284;2023-04-25T01:48:08;12.43;;;3.17;;
18997;SDS011;9632;51.018;4.284;2023-04-25T01:50:35;20.17;;;3.80;;
18997;SDS011;9632;51.018;4.284;2023-04-25T01:53:02;15.52;;;3.42;;
18997;SDS011;9632;51.018;4.284;2023-04-25T01:55:29;14.70;;;3.28;;
18997;SDS011;9632;51.018;4.284;2023-04-25T01:57:54;11.90;;;2.90;;
18997;SDS011;9632;51.018;4.284;2023-04-25T02:00:20;14.23;;;2.70;;
18997;SDS011;9632;51.018;4.284;2023-04-25T02:02:46;14.43;;;3.00;;
18997;SDS011;9632;51.018;4.284;2023-04-25T02:05:11;14.15;;;3.40;;
18997;SDS011;9632;51.018;4.284;2023-04-25T02:07:37;10.77;;;2.60;;
18997;SDS011;9632;51.018;4.284;2023-04-25T02:10:03;16.42;;;3.40;;
18997;SDS011;9632;51.018;4.284;2023-04-25T02:12:29;12.32;;;3.13;;
18997;SDS011;9632;51.018;4.284;2023-04-25T02:14:55;13.63;;;3.13;;
18997;SDS011;9632;51.018;4.284;2023-04-25T02:17:21;12.40;;;2.72;;
18997;SDS011;9632;51.018;4.284;2023-04-25T02:19:47;12.30;;;3.00;;
18997;SDS011;9632;51.018;4.284;2023-04-25T02:22:13;14.93;;;3.30;;
18997;SDS011;9632;51.018;4.284;2023-04-25T02:24:39;17.30;;;3.38;;
18997;SDS011;9632;51.018;4.284;2023-04-25T02:27:05;16.30;;;3.30;;
18997;SDS011;9632;51.018;4.284;2023-04-25T02:29:31;14.75;;;3.42;;
18997;SDS011;9632;51.018;4.284;2023-04-25T02:31:56;17.52;;;3.45;;
18997;SDS011;9632;51.018;4.284;2023-04-25T02:34:22;12.18;;;3.10;;
18997;SDS011;9632;51.018;4.284;2023-04-25T02:36:48;17.67;;;3.50;;
18997;SDS011;9632;51.018;4.284;2023-04-25T02:39:15;22.13;;;3.70;;
18997;SDS011;9632;51.018;4.284;2023-04-25T02:41:41;14.27;;;3.10;;
18997;SDS011;9632;51.018;4.284;2023-04-25T02:44:07;18.20;;;3.25;;
18997;SDS011;9632;51.018;4.284;2023-04-25T02:46:33;23.33;;;3.55;;
18997;SDS011;9632;51.018;4.284;2023-04-25T02:48:58;26.58;;;3.58;;
18997;SDS011;9632;51.018;4.284;2023-04-25T02:51:24;15.45;;;3.38;;
18997;SDS011;9632;51.018;4.284;2023-04-25T02:53:50;21.20;;;3.65;;
18997;SDS011;9632;51.018;4.284;2023-04-25T02:56:15;17.98;;;3.13;;
18997;SDS011;9632;51.018;4.284;2023-04-25T02:58:41;19.58;;;3.30;;
18997;SDS011;9632;51.018;4.284;2023-04-25T03:01:06;21.55;;;4.15;;
18997;SDS011;9632;51.018;4.284;2023-04-25T03:03:32;19.40;;;3.25;;
18997;SDS011;9632;51.018;4.284;2023-04-25T03:05:58;15.90;;;3.20;;
18997;SDS011;9632;51.018;4.284;2023-04-25T03:08:23;19.50;;;3.35;;
18997;SDS011;9632;51.018;4.284;2023-04-25T03:10:50;15.20;;;3.30;;
18997;SDS011;9632;51.018;4.284;2023-04-25T03:13:17;19.10;;;3.75;;
18997;SDS011;9632;51.018;4.284;2023-04-25T03:15:43;16.23;;;3.10;;
18997;SDS011;9632;51.018;4.284;2023-04-25T03:18:09;14.95;;;3.00;;
18997;SDS011;9632;51.018;4.284;2023-04-25T03:20:34;15.32;;;2.90;;
18997;SDS011;9632;51.018;4.284;2023-04-25T03:23:00;18.08;;;3.25;;
18997;SDS011;9632;51.018;4.284;2023-04-25T03:25:26;14.68;;;3.33;;
18997;SDS011;9632;51.018;4.284;2023-04-25T03:27:51;12.60;;;2.85;;
18997;SDS011;9632;51.018;4.284;2023-04-25T03:30:17;13.73;;;2.78;;
18997;SDS011;9632;51.018;4.284;2023-04-25T03:32:43;16.95;;;3.22;;
18997;SDS011;9632;51.018;4.284;2023-04-25T03:35:08;19.27;;;3.15;;
18997;SDS011;9632;51.018;4.284;2023-04-25T03:37:34;13.05;;;2.92;;
18997;SDS011;9632;51.018;4.284;2023-04-25T03:39:59;18.83;;;2.80;;
18997;SDS011;9632;51.018;4.284;2023-04-25T03:42:25;14.18;;;2.83;;
18997;SDS011;9632;51.018;4.284;2023-04-25T03:44:51;13.50;;;2.85;;
18997;SDS011;9632;51.018;4.284;2023-04-25T03:47:17;11.15;;;2.97;;
18997;SDS011;9632;51.018;4.284;2023-04-25T03:49:43;9.93;;;2.63;;
18997;SDS011;9632;51.018;4.284;2023-04-25T03:52:09;15.10;;;3.00;;
18997;SDS011;9632;51.018;4.284;2023-04-25T03:54:35;14.95;;;2.83;;
18997;SDS011;9632;51.018;4.284;2023-04-25T03:57:00;16.45;;;3.00;;
18997;SDS011;9632;51.018;4.284;2023-04-25T03:59:26;17.17;;;2.63;;
18997;SDS011;9632;51.018;4.284;2023-04-25T04:01:52;13.18;;;2.92;;
18997;SDS011;9632;51.018;4.284;2023-04-25T04:04:17;13.93;;;3.45;;
18997;SDS011;9632;51.018;4.284;2023-04-25T04:06:43;24.60;;;3.40;;
18997;SDS011;9632;51.018;4.284;2023-04-25T04:09:09;15.15;;;3.58;;
18997;SDS011;9632;51.018;4.284;2023-04-25T04:11:36;22.60;;;4.22;;
18997;SDS011;9632;51.018;4.284;2023-04-25T04:14:04;17.10;;;3.85;;
18997;SDS011;9632;51.018;4.284;2023-04-25T04:16:30;16.55;;;3.33;;
18997;SDS011;9632;51.018;4.284;2023-04-25T04:18:56;14.48;;;2.78;;
18997;SDS011;9632;51.018;4.284;2023-04-25T04:21:21;12.73;;;3.17;;
18997;SDS011;9632;51.018;4.284;2023-04-25T04:23:47;14.55;;;2.80;;
18997;SDS011;9632;51.018;4.284;2023-04-25T04:26:13;15.80;;;2.83;;
18997;SDS011;9632;51.018;4.284;2023-04-25T04:28:41;11.65;;;2.95;;
18997;SDS011;9632;51.018;4.284;2023-04-25T04:31:08;17.58;;;3.30;;
18997;SDS011;9632;51.018;4.284;2023-04-25T04:33:35;14.32;;;2.85;;
18997;SDS011;9632;51.018;4.284;2023-04-25T04:36:01;10.32;;;2.22;;
18997;SDS011;9632;51.018;4.284;2023-04-25T04:38:28;11.95;;;2.50;;
18997;SDS011;9632;51.018;4.284;2023-04-25T04:40:54;12.48;;;2.60;;
18997;SDS011;9632;51.018;4.284;2023-04-25T04:43:20;10.98;;;2.17;;
18997;SDS011;9632;51.018;4.284;2023-04-25T04:45:47;13.02;;;2.58;;
18997;SDS011;9632;51.018;4.284;2023-04-25T04:48:14;14.00;;;2.28;;
18997;SDS011;9632;51.018;4.284;2023-04-25T04:50:40;13.55;;;2.75;;
18997;SDS011;9632;51.018;4.284;2023-04-25T04:53:07;10.05;;;1.90;;
18997;SDS011;9632;51.018;4.284;2023-04-25T04:55:33;7.65;;;2.08;;
18997;SDS011;9632;51.018;4.284;2023-04-25T04:57:58;10.85;;;2.38;;
18997;SDS011;9632;51.018;4.284;2023-04-25T05:00:24;9.10;;;2.13;;
18997;SDS011;9632;51.018;4.284;2023-04-25T05:02:50;8.65;;;1.95;;
18997;SDS011;9632;51.018;4.284;2023-04-25T05:05:15;7.93;;;1.98;;
18997;SDS011;9632;51.018;4.284;2023-04-25T05:07:41;9.40;;;2.30;;
18997;SDS011;9632;51.018;4.284;2023-04-25T05:10:07;11.50;;;2.08;;
18997;SDS011;9632;51.018;4.284;2023-04-25T05:12:33;11.23;;;2.10;;
18997;SDS011;9632;51.018;4.284;2023-04-25T05:14:59;10.10;;;2.22;;
18997;SDS011;9632;51.018;4.284;2023-04-25T05:17:25;8.32;;;1.83;;
18997;SDS011;9632;51.018;4.284;2023-04-25T05:19:50;10.73;;;2.03;;
18997;SDS011;9632;51.018;4.284;2023-04-25T05:22:16;11.65;;;2.33;;
18997;SDS011;9632;51.018;4.284;2023-04-25T05:24:42;11.85;;;2.38;;
18997;SDS011;9632;51.018;4.284;2023-04-25T05:27:07;9.45;;;2.30;;
18997;SDS011;9632;51.018;4.284;2023-04-25T05:29:33;12.15;;;2.55;;
18997;SDS011;9632;51.018;4.284;2023-04-25T05:32:00;11.13;;;2.20;;
18997;SDS011;9632;51.018;4.284;2023-04-25T05:34:25;11.98;;;2.40;;
18997;SDS011;9632;51.018;4.284;2023-04-25T05:36:51;10.57;;;2.63;;
18997;SDS011;9632;51.018;4.284;2023-04-25T05:39:17;9.70;;;2.20;;
18997;SDS011;9632;51.018;4.284;2023-04-25T05:41:43;8.27;;;2.40;;
18997;SDS011;9632;51.018;4.284;2023-04-25T05:44:08;12.85;;;2.63;;
18997;SDS011;9632;51.018;4.284;2023-04-25T05:46:34;8.20;;;2.03;;
18997;SDS011;9632;51.018;4.284;2023-04-25T05:49:00;11.68;;;2.50;;
18997;SDS011;9632;51.018;4.284;2023-04-25T05:51:26;9.52;;;2.33;;
18997;SDS011;9632;51.018;4.284;2023-04-25T05:53:52;11.68;;;2.35;;
18997;SDS011;9632;51.018;4.284;2023-04-25T05:56:18;15.68;;;3.35;;
18997;SDS011;9632;51.018;4.284;2023-04-25T05:58:43;11.25;;;2.33;;
18997;SDS011;9632;51.018;4.284;2023-04-25T06:01:09;10.10;;;2.42;;
18997;SDS011;9632;51.018;4.284;2023-04-25T06:03:35;14.88;;;2.78;;
18997;SDS011;9632;51.018;4.284;2023-04-25T06:06:02;11.85;;;2.78;;
18997;SDS011;9632;51.018;4.284;2023-04-25T06:08:28;15.23;;;3.15;;
18997;SDS011;9632;51.018;4.284;2023-04-25T06:10:54;15.00;;;2.90;;
18997;SDS011;9632;51.018;4.284;2023-04-25T06:13:19;14.98;;;3.70;;
18997;SDS011;9632;51.018;4.284;2023-04-25T06:15:46;26.38;;;4.10;;
18997;SDS011;9632;51.018;4.284;2023-04-25T06:18:11;15.25;;;3.72;;
18997;SDS011;9632;51.018;4.284;2023-04-25T06:20:37;16.15;;;3.15;;
18997;SDS011;9632;51.018;4.284;2023-04-25T06:23:02;14.40;;;2.72;;
18997;SDS011;9632;51.018;4.284;2023-04-25T06:25:28;17.48;;;3.33;;
18997;SDS011;9632;51.018;4.284;2023-04-25T06:27:54;16.42;;;3.67;;
18997;SDS011;9632;51.018;4.284;2023-04-25T06:30:19;22.17;;;3.28;;
18997;SDS011;9632;51.018;4.284;2023-04-25T06:32:50;18.90;;;2.97;;
18997;SDS011;9632;51.018;4.284;2023-04-25T06:35:19;13.23;;;2.95;;
18997;SDS011;9632;51.018;4.284;2023-04-25T06:37:45;16.95;;;2.63;;
18997;SDS011;9632;51.018;4.284;2023-04-25T06:40:10;14.18;;;2.72;;
18997;SDS011;9632;51.018;4.284;2023-04-25T06:42:36;10.93;;;2.65;;
18997;SDS011;9632;51.018;4.284;2023-04-25T06:45:02;15.45;;;3.30;;
18997;SDS011;9632;51.018;4.284;2023-04-25T06:47:28;12.38;;;3.17;;
18997;SDS011;9632;51.018;4.284;2023-04-25T06:49:54;12.65;;;2.63;;
18997;SDS011;9632;51.018;4.284;2023-04-25T06:52:20;13.38;;;2.60;;
18997;SDS011;9632;51.018;4.284;2023-04-25T06:54:46;11.70;;;2.35;;
18997;SDS011;9632;51.018;4.284;2023-04-25T06:57:11;11.80;;;2.20;;
18997;SDS011;9632;51.018;4.284;2023-04-25T06:59:37;11.63;;;2.70;;
18997;SDS011;9632;51.018;4.284;2023-04-25T07:02:03;10.40;;;1.95;;
18997;SDS011;9632;51.018;4.284;2023-04-25T07:04:29;10.80;;;2.10;;
18997;SDS011;9632;51.018;4.284;2023-04-25T07:06:55;15.38;;;2.65;;
18997;SDS011;9632;51.018;4.284;2023-04-25T07:09:21;12.98;;;2.10;;
18997;SDS011;9632;51.018;4.284;2023-04-25T07:11:47;14.27;;;2.53;;
18997;SDS011;9632;51.018;4.284;2023-04-25T07:14:13;10.07;;;2.35;;
18997;SDS011;9632;51.018;4.284;2023-04-25T07:16:38;8.45;;;1.85;;
18997;SDS011;9632;51.018;4.284;2023-04-25T07:19:04;12.27;;;2.00;;
18997;SDS011;9632;51.018;4.284;2023-04-25T07:21:30;15.95;;;2.33;;
18997;SDS011;9632;51.018;4.284;2023-04-25T07:23:56;10.15;;;2.05;;
18997;SDS011;9632;51.018;4.284;2023-04-25T07:26:22;8.05;;;1.88;;
18997;SDS011;9632;51.018;4.284;2023-04-25T07:28:48;8.35;;;2.30;;
18997;SDS011;9632;51.018;4.284;2023-04-25T07:31:15;11.05;;;2.38;;
18997;SDS011;9632;51.018;4.284;2023-04-25T07:33:43;9.23;;;2.08;;
18997;SDS011;9632;51.018;4.284;2023-04-25T07:36:10;10.88;;;1.95;;
18997;SDS011;9632;51.018;4.284;2023-04-25T07:38:35;13.40;;;2.30;;
18997;SDS011;9632;51.018;4.284;2023-04-25T07:41:01;13.27;;;2.55;;
18997;SDS011;9632;51.018;4.284;2023-04-25T07:43:27;12.57;;;2.38;;
18997;SDS011;9632;51.018;4.284;2023-04-25T07:45:52;8.85;;;1.92;;
18997;SDS011;9632;51.018;4.284;2023-04-25T07:48:18;21.33;;;2.50;;
18997;SDS011;9632;51.018;4.284;2023-04-25T07:50:44;10.95;;;2.30;;
18997;SDS011;9632;51.018;4.284;2023-04-25T07:53:10;14.25;;;2.20;;
18997;SDS011;9632;51.018;4.284;2023-04-25T07:55:36;9.40;;;2.00;;
18997;SDS011;9632;51.018;4.284;2023-04-25T07:58:04;15.77;;;2.25;;
18997;SDS011;9632;51.018;4.284;2023-04-25T08:00:33;13.57;;;2.20;;
18997;SDS011;9632;51.018;4.284;2023-04-25T08:02:59;12.88;;;2.10;;
18997;SDS011;9632;51.018;4.284;2023-04-25T08:05:25;11.15;;;2.42;;
18997;SDS011;9632;51.018;4.284;2023-04-25T08:07:50;17.00;;;2.00;;
18997;SDS011;9632;51.018;4.284;2023-04-25T08:10:16;6.90;;;1.35;;
18997;SDS011;9632;51.018;4.284;2023-04-25T08:12:42;8.90;;;1.70;;
18997;SDS011;9632;51.018;4.284;2023-04-25T08:15:08;11.77;;;1.80;;
18997;SDS011;9632;51.018;4.284;2023-04-25T08:17:34;10.25;;;1.98;;
18997;SDS011;9632;51.018;4.284;2023-04-25T08:20:00;8.15;;;1.77;;
18997;SDS011;9632;51.018;4.284;2023-04-25T08:22:26;7.32;;;1.30;;
18997;SDS011;9632;51.018;4.284;2023-04-25T08:24:51;5.47;;;1.67;;
18997;SDS011;9632;51.018;4.284;2023-04-25T08:27:20;13.20;;;1.70;;
18997;SDS011;9632;51.018;4.284;2023-04-25T08:29:45;12.90;;;1.48;;
18997;SDS011;9632;51.018;4.284;2023-04-25T08:32:11;12.07;;;2.13;;
18997;SDS011;9632;51.018;4.284;2023-04-25T08:34:37;10.40;;;2.10;;
18997;SDS011;9632;51.018;4.284;2023-04-25T08:37:07;9.20;;;1.70;;
18997;SDS011;9632;51.018;4.284;2023-04-25T08:39:33;6.90;;;1.48;;
18997;SDS011;9632;51.018;4.284;2023-04-25T08:41:59;9.15;;;1.42;;
18997;SDS011;9632;51.018;4.284;2023-04-25T08:44:25;7.43;;;1.33;;
18997;SDS011;9632;51.018;4.284;2023-04-25T08:46:52;7.07;;;1.88;;
18997;SDS011;9632;51.018;4.284;2023-04-25T08:49:18;8.10;;;1.50;;
18997;SDS011;9632;51.018;4.284;2023-04-25T08:51:45;9.65;;;1.50;;
18997;SDS011;9632;51.018;4.284;2023-04-25T08:54:13;9.18;;;1.45;;
18997;SDS011;9632;51.018;4.284;2023-04-25T08:56:40;10.55;;;2.05;;
18997;SDS011;9632;51.018;4.284;2023-04-25T08:59:09;9.90;;;1.20;;
18997;SDS011;9632;51.018;4.284;2023-04-25T09:01:36;9.18;;;1.20;;
18997;SDS011;9632;51.018;4.284;2023-04-25T09:04:02;8.25;;;1.40;;
18997;SDS011;9632;51.018;4.284;2023-04-25T09:06:28;7.57;;;1.27;;
18997;SDS011;9632;51.018;4.284;2023-04-25T09:09:00;7.20;;;1.42;;
18997;SDS011;9632;51.018;4.284;2023-04-25T09:11:30;8.73;;;1.42;;
18997;SDS011;9632;51.018;4.284;2023-04-25T09:14:13;10.65;;;1.13;;
18997;SDS011;9632;51.018;4.284;2023-04-25T09:19:31;12.88;;;1.30;;
18997;SDS011;9632;51.018;4.284;2023-04-25T09:21:59;5.15;;;0.90;;
18997;SDS011;9632;51.018;4.284;2023-04-25T09:24:41;8.43;;;1.52;;
18997;SDS011;9632;51.018;4.284;2023-04-25T09:27:10;11.68;;;1.27;;
18997;SDS011;9632;51.018;4.284;2023-04-25T09:29:38;7.63;;;1.30;;
18997;SDS011;9632;51.018;4.284;2023-04-25T09:34:44;7.60;;;1.35;;
18997;SDS011;9632;51.018;4.284;2023-04-25T09:37:24;7.68;;;1.27;;
18997;SDS011;9632;51.018;4.284;2023-04-25T09:39:58;7.90;;;1.10;;
18997;SDS011;9632;51.018;4.284;2023-04-25T09:42:27;4.65;;;0.95;;
18997;SDS011;9632;51.018;4.284;2023-04-25T09:44:54;9.10;;;1.05;;
18997;SDS011;9632;51.018;4.284;2023-04-25T09:47:22;7.00;;;0.80;;
18997;SDS011;9632;51.018;4.284;2023-04-25T09:49:49;5.97;;;0.82;;
18997;SDS011;9632;51.018;4.284;2023-04-25T09:52:16;4.13;;;0.75;;
18997;SDS011;9632;51.018;4.284;2023-04-25T09:54:44;6.43;;;1.02;;
18997;SDS011;9632;51.018;4.284;2023-04-25T09:57:12;6.35;;;0.73;;
18997;SDS011;9632;51.018;4.284;2023-04-25T09:59:44;8.90;;;1.33;;
18997;SDS011;9632;51.018;4.284;2023-04-25T10:02:15;5.10;;;0.90;;
18997;SDS011;9632;51.018;4.284;2023-04-25T10:04:44;5.32;;;0.77;;
18997;SDS011;9632;51.018;4.284;2023-04-25T10:07:13;6.80;;;1.05;;
18997;SDS011;9632;51.018;4.284;2023-04-25T10:09:39;7.20;;;0.90;;
18997;SDS011;9632;51.018;4.284;2023-04-25T10:12:06;7.47;;;0.98;;
18997;SDS011;9632;51.018;4.284;2023-04-25T10:14:33;10.20;;;1.10;;
18997;SDS011;9632;51.018;4.284;2023-04-25T10:16:59;7.07;;;1.08;;
18997;SDS011;9632;51.018;4.284;2023-04-25T10:19:25;6.18;;;0.90;;
18997;SDS011;9632;51.018;4.284;2023-04-25T10:21:54;5.45;;;0.93;;
18997;SDS011;9632;51.018;4.284;2023-04-25T10:24:29;8.23;;;1.33;;
18997;SDS011;9632;51.018;4.284;2023-04-25T10:26:55;8.07;;;0.85;;
18997;SDS011;9632;51.018;4.284;2023-04-25T10:29:23;8.20;;;1.08;;
18997;SDS011;9632;51.018;4.284;2023-04-25T10:31:50;5.38;;;1.08;;
18997;SDS011;9632;51.018;4.284;2023-04-25T10:34:16;9.88;;;1.08;;
18997;SDS011;9632;51.018;4.284;2023-04-25T10:36:42;8.00;;;1.30;;
18997;SDS011;9632;51.018;4.284;2023-04-25T10:39:13;7.60;;;1.15;;
18997;SDS011;9632;51.018;4.284;2023-04-25T10:44:20;5.25;;;0.98;;
18997;SDS011;9632;51.018;4.284;2023-04-25T10:46:45;8.18;;;1.10;;
18997;SDS011;9632;51.018;4.284;2023-04-25T10:49:14;11.35;;;1.20;;
18997;SDS011;9632;51.018;4.284;2023-04-25T10:54:56;3.95;;;1.00;;
18997;SDS011;9632;51.018;4.284;2023-04-25T10:57:26;8.80;;;1.25;;
18997;SDS011;9632;51.018;4.284;2023-04-25T11:00:18;5.28;;;1.27;;
18997;SDS011;9632;51.018;4.284;2023-04-25T11:02:55;9.30;;;1.35;;
18997;SDS011;9632;51.018;4.284;2023-04-25T11:05:31;7.72;;;1.08;;
18997;SDS011;9632;51.018;4.284;2023-04-25T11:07:58;5.50;;;1.05;;
18997;SDS011;9632;51.018;4.284;2023-04-25T11:10:33;4.88;;;1.42;;
18997;SDS011;9632;51.018;4.284;2023-04-25T11:13:02;11.23;;;1.42;;
18997;SDS011;9632;51.018;4.284;2023-04-25T11:15:28;5.13;;;1.08;;
18997;SDS011;9632;51.018;4.284;2023-04-25T11:17:54;6.25;;;1.02;;
18997;SDS011;9632;51.018;4.284;2023-04-25T11:20:20;4.20;;;1.02;;
18997;SDS011;9632;51.018;4.284;2023-04-25T11:22:47;6.68;;;1.02;;
18997;SDS011;9632;51.018;4.284;2023-04-25T11:25:14;5.00;;;0.85;;
18997;SDS011;9632;51.018;4.284;2023-04-25T11:27:53;6.43;;;1.17;;
18997;SDS011;9632;51.018;4.284;2023-04-25T11:30:24;3.90;;;0.90;;
18997;SDS011;9632;51.018;4.284;2023-04-25T11:32:51;4.78;;;1.10;;
18997;SDS011;9632;51.018;4.284;2023-04-25T11:35:18;2.95;;;0.57;;
18997;SDS011;9632;51.018;4.284;2023-04-25T11:37:45;5.70;;;0.73;;
18997;SDS011;9632;51.018;4.284;2023-04-25T11:40:11;6.15;;;0.93;;
18997;SDS011;9632;51.018;4.284;2023-04-25T11:42:43;5.75;;;1.02;;
18997;SDS011;9632;51.018;4.284;2023-04-25T11:45:10;3.80;;;0.50;;
18997;SDS011;9632;51.018;4.284;2023-04-25T11:47:36;4.40;;;0.70;;
18997;SDS011;9632;51.018;4.284;2023-04-25T11:50:03;2.78;;;0.70;;
18997;SDS011;9632;51.018;4.284;2023-04-25T11:55:06;2.72;;;0.70;;
18997;SDS011;9632;51.018;4.284;2023-04-25T11:57:34;2.67;;;0.70;;
18997;SDS011;9632;51.018;4.284;2023-04-25T12:02:51;3.40;;;0.60;;
18997;SDS011;9632;51.018;4.284;2023-04-25T12:05:18;4.97;;;0.75;;
18997;SDS011;9632;51.018;4.284;2023-04-25T12:07:45;2.35;;;0.60;;
18997;SDS011;9632;51.018;4.284;2023-04-25T12:10:12;4.50;;;0.90;;
18997;SDS011;9632;51.018;4.284;2023-04-25T12:12:43;4.70;;;0.70;;
18997;SDS011;9632;51.018;4.284;2023-04-25T12:15:13;7.38;;;0.93;;
18997;SDS011;9632;51.018;4.284;2023-04-25T12:17:41;6.13;;;0.90;;
18997;SDS011;9632;51.018;4.284;2023-04-25T12:20:08;4.95;;;0.75;;
18997;SDS011;9632;51.018;4.284;2023-04-25T12:22:35;3.85;;;0.88;;
18997;SDS011;9632;51.018;4.284;2023-04-25T12:25:01;6.55;;;1.08;;
18997;SDS011;9632;51.018;4.284;2023-04-25T12:27:30;6.57;;;0.73;;
18997;SDS011;9632;51.018;4.284;2023-04-25T12:29:56;6.65;;;0.82;;
18997;SDS011;9632;51.018;4.284;2023-04-25T12:32:22;7.00;;;0.80;;
18997;SDS011;9632;51.018;4.284;2023-04-25T12:34:52;7.25;;;1.20;;
18997;SDS011;9632;51.018;4.284;2023-04-25T12:37:17;5.28;;;1.02;;
18997;SDS011;9632;51.018;4.284;2023-04-25T12:39:43;5.53;;;0.90;;
18997;SDS011;9632;51.018;4.284;2023-04-25T12:42:09;8.38;;;0.60;;
18997;SDS011;9632;51.018;4.284;2023-04-25T12:44:36;5.78;;;0.90;;
18997;SDS011;9632;51.018;4.284;2023-04-25T12:47:03;7.03;;;0.90;;
18997;SDS011;9632;51.018;4.284;2023-04-25T12:49:29;4.68;;;0.80;;
18997;SDS011;9632;51.018;4.284;2023-04-25T12:51:55;2.97;;;0.70;;
18997;SDS011;9632;51.018;4.284;2023-04-25T12:54:20;4.13;;;0.90;;
18997;SDS011;9632;51.018;4.284;2023-04-25T12:56:46;1.25;;;0.50;;
18997;SDS011;9632;51.018;4.284;2023-04-25T12:59:12;2.80;;;0.60;;
18997;SDS011;9632;51.018;4.284;2023-04-25T13:01:38;7.88;;;0.90;;
18997;SDS011;9632;51.018;4.284;2023-04-25T13:04:03;4.65;;;0.90;;
18997;SDS011;9632;51.018;4.284;2023-04-25T13:06:29;10.02;;;1.27;;
18997;SDS011;9632;51.018;4.284;2023-04-25T13:08:55;5.55;;;1.00;;
18997;SDS011;9632;51.018;4.284;2023-04-25T13:11:21;7.05;;;1.08;;
18997;SDS011;9632;51.018;4.284;2023-04-25T13:13:47;7.70;;;1.08;;
18997;SDS011;9632;51.018;4.284;2023-04-25T13:16:12;4.68;;;0.98;;
18997;SDS011;9632;51.018;4.284;2023-04-25T13:18:41;8.00;;;1.48;;
18997;SDS011;9632;51.018;4.284;2023-04-25T13:21:08;7.32;;;1.00;;
18997;SDS011;9632;51.018;4.284;2023-04-25T13:23:35;6.82;;;0.77;;
18997;SDS011;9632;51.018;4.284;2023-04-25T13:26:01;9.15;;;1.00;;
18997;SDS011;9632;51.018;4.284;2023-04-25T13:28:27;6.90;;;0.88;;
18997;SDS011;9632;51.018;4.284;2023-04-25T13:30:53;6.18;;;0.80;;
18997;SDS011;9632;51.018;4.284;2023-04-25T13:33:19;4.20;;;0.90;;
18997;SDS011;9632;51.018;4.284;2023-04-25T13:35:45;5.78;;;0.90;;
18997;SDS011;9632;51.018;4.284;2023-04-25T13:38:18;4.78;;;0.70;;
18997;SDS011;9632;51.018;4.284;2023-04-25T13:40:47;3.15;;;0.70;;
18997;SDS011;9632;51.018;4.284;2023-04-25T13:43:13;4.72;;;0.60;;
18997;SDS011;9632;51.018;4.284;2023-04-25T13:45:39;3.00;;;0.68;;
18997;SDS011;9632;51.018;4.284;2023-04-25T13:48:06;4.57;;;0.73;;
18997;SDS011;9632;51.018;4.284;2023-04-25T13:50:31;3.03;;;0.60;;
18997;SDS011;9632;51.018;4.284;2023-04-25T13:52:57;7.95;;;0.90;;
18997;SDS011;9632;51.018;4.284;2023-04-25T13:55:23;7.95;;;0.88;;
18997;SDS011;9632;51.018;4.284;2023-04-25T13:57:48;3.72;;;0.73;;
18997;SDS011;9632;51.018;4.284;2023-04-25T14:00:14;5.47;;;0.90;;
18997;SDS011;9632;51.018;4.284;2023-04-25T14:02:40;5.93;;;1.00;;
18997;SDS011;9632;51.018;4.284;2023-04-25T14:05:06;3.05;;;0.80;;
18997;SDS011;9632;51.018;4.284;2023-04-25T14:07:36;6.72;;;0.70;;
18997;SDS011;9632;51.018;4.284;2023-04-25T14:10:02;3.90;;;0.65;;
18997;SDS011;9632;51.018;4.284;2023-04-25T14:12:29;5.15;;;0.80;;
18997;SDS011;9632;51.018;4.284;2023-04-25T14:14:55;5.63;;;0.70;;
18997;SDS011;9632;51.018;4.284;2023-04-25T14:17:20;5.70;;;1.00;;
18997;SDS011;9632;51.018;4.284;2023-04-25T14:19:46;3.95;;;0.80;;
18997;SDS011;9632;51.018;4.284;2023-04-25T14:22:13;4.30;;;1.00;;
18997;SDS011;9632;51.018;4.284;2023-04-25T14:24:40;4.47;;;0.50;;
18997;SDS011;9632;51.018;4.284;2023-04-25T14:27:06;5.05;;;0.85;;
18997;SDS011;9632;51.018;4.284;2023-04-25T14:29:32;4.30;;;0.82;;
18997;SDS011;9632;51.018;4.284;2023-04-25T14:31:57;6.63;;;0.60;;
18997;SDS011;9632;51.018;4.284;2023-04-25T14:34:24;5.93;;;0.80;;
18997;SDS011;9632;51.018;4.284;2023-04-25T14:36:50;4.25;;;1.00;;
18997;SDS011;9632;51.018;4.284;2023-04-25T14:39:16;6.25;;;0.82;;
18997;SDS011;9632;51.018;4.284;2023-04-25T14:41:43;3.65;;;0.60;;
18997;SDS011;9632;51.018;4.284;2023-04-25T14:44:09;6.10;;;0.90;;
18997;SDS011;9632;51.018;4.284;2023-04-25T14:46:35;5.45;;;0.80;;
18997;SDS011;9632;51.018;4.284;2023-04-25T14:49:01;5.47;;;0.90;;
18997;SDS011;9632;51.018;4.284;2023-04-25T14:51:28;2.75;;;0.80;;
18997;SDS011;9632;51.018;4.284;2023-04-25T14:53:53;5.20;;;0.90;;
18997;SDS011;9632;51.018;4.284;2023-04-25T14:56:19;5.75;;;0.65;;
18997;SDS011;9632;51.018;4.284;2023-04-25T14:58:45;5.88;;;0.75;;
18997;SDS011;9632;51.018;4.284;2023-04-25T15:01:11;5.53;;;0.90;;
18997;SDS011;9632;51.018;4.284;2023-04-25T15:03:38;5.90;;;0.73;;
18997;SDS011;9632;51.018;4.284;2023-04-25T15:06:04;4.10;;;0.70;;
18997;SDS011;9632;51.018;4.284;2023-04-25T15:08:31;5.10;;;1.20;;